Station: Tasman Island  

  Atmospheric Gas Attenuation - ITU Rec 676-11   ----------------- dB/100km -----------------
Date Time Temp RH % AH g/m3 Dew Point Wind Direction Speed kph Gust kph Barometer mB Rainfall Since 9am 24GHz 47GHz 76GHz 122GHz 134GHz 241GHz
07/05 02:10 5.8 90 6.45 4.3 19 24 1007.9 8.8 15.3 24.4 34.6 90.6 78.4 267.5
07/05 02:00 5.8 91 6.52 4.4 19 39 1007.9 8.6 15.5 24.6 34.9 91.3 79.4 270.8
07/05 01:50 19 30 1007.8 8.6
07/05 01:40 6 92 6.68 4.8 19 30 1007.7 8.6 15.8 24.8 35.4 92.8 81.3 277.6
07/05 01:30 6 92 6.68 4.8 22 56 1007.7 8.6 15.8 24.8 35.4 92.8 81.3 277.6
07/05 01:20 6.3 89 6.59 4.7 20 44 1007.5 8.4 15.6 24.5 34.9 91.5 79.8 272.3
07/05 01:10 6.5 89 6.68 4.9 11 19 1007.7 8.2 15.8 24.6 35.2 92.2 80.8 275.9
07/05 01:00 6.5 89 6.68 4.8 9 32 1007.5 8 15.8 24.6 35.2 92.2 80.8 275.8
07/05 00:50 6.6 92 6.95 5.4 11 28 1007.2 8 16.4 25.0 36.3 95.0 84.3 288.2
07/05 00:40 6.7 94 7.15 5.8 7 17 1007.2 7.8 16.8 25.3 37.0 97.1 86.9 297.4
07/05 00:30 6.5 92 6.9 5.3 22 46 1007.3 7.8 16.3 25.0 36.1 94.6 83.7 286.2
07/05 00:20 6.9 93 7.16 5.8 17 26 1006.8 7.8 16.8 25.3 37.0 97.0 86.8 297.1
07/05 00:10 6.9 93 7.16 5.8 17 28 1006.7 7.8 16.8 25.3 37.0 96.9 86.8 297.0
07/05 00:00 6.9 91 7.01 5.5 13 37 1006.7 7.8 16.5 25.0 36.4 95.3 84.8 289.9
06/05 23:50 6.7 89 6.77 5.1 13 24 1006.6 7.8 16.0 24.7 35.5 92.9 81.7 279.2
06/05 23:40 6.9 87 6.7 4.9 20 33 1006.6 7.8 15.8 24.5 35.1 91.9 80.6 275.1
06/05 23:30 6.8 86 6.58 4.6 17 37 1006.6 7.8 15.6 24.3 34.6 90.7 79.0 269.9
06/05 23:20 6.9 87 6.7 4.9 20 37 1006.7 7.8 15.8 24.5 35.1 91.9 80.6 275.2
06/05 23:10 6.8 88 6.73 4.9 13 22 1006.7 7.8 15.9 24.6 35.2 92.3 81.1 276.9
06/05 23:00 6.7 90 6.84 5.2 17 41 1006.8 7.6 16.1 24.8 35.7 93.7 82.7 282.5
06/05 22:50 6.7 93 7.07 5.6 28 43 1006.7 7.4 16.6 25.2 36.7 96.2 85.8 293.5
06/05 22:40 6.9 94 7.24 6 24 39 1006.8 7.4 17.0 25.4 37.3 97.8 87.9 300.9
06/05 22:30 6.6 93 7.02 5.6 30 54 1007 7.2 16.5 25.1 36.5 95.8 85.2 291.5
06/05 22:20 7.7 83 6.73 5.1 6 17 1007.2 6.8 15.8 24.4 34.9 91.3 80.2 273.9
06/05 22:10 7.8 85 6.94 5.4 15 32 1006.9 6.8 16.3 24.7 35.7 93.5 82.8 283.3
06/05 22:00 7.7 83 6.73 5 11 35 1006.9 6.8 15.8 24.3 34.9 91.3 80.1 273.8
06/05 21:50 7.8 83 6.78 5.1 15 28 1007 6.8 16.0 24.4 35.0 91.7 80.7 275.8
06/05 21:40 7.6 83 6.69 4.9 13 22 1007.3 6.8 15.8 24.3 34.8 91.0 79.7 272.4
06/05 21:30 7.3 84 6.64 4.8 15 35 1006.8 6.8 15.7 24.3 34.7 90.8 79.4 271.0
06/05 21:20 7.2 89 6.99 5.5 19 28 1007 6.8 16.4 24.9 36.1 94.7 84.2 287.9
06/05 21:10 7.2 93 7.3 6.1 24 33 1007 6.8 17.1 25.4 37.4 98.2 88.4 302.7
06/05 21:00 7 93 7.21 5.9 20 44 1007 6.8 16.9 25.3 37.1 97.4 87.4 299.1
06/05 20:50 6.9 93 7.16 5.8 30 41 1006.8 6.6 16.8 25.3 37.0 97.0 86.8 297.1
06/05 20:40 7.3 91 7.19 6 37 46 1006.5 6 16.9 25.2 36.9 96.8 86.7 296.9
06/05 20:30 7.5 87 6.97 5.5 13 32 1006.7 5.8 16.4 24.8 35.9 94.1 83.6 285.7
06/05 20:20 7.5 88 7.05 5.6 22 37 1006.7 5.8 16.5 24.9 36.2 95.0 84.6 289.5
06/05 20:10 7.3 89 7.04 5.6 19 30 1006.6 5.8 16.5 24.9 36.3 95.1 84.7 289.8
06/05 20:00 7.3 91 7.19 5.9 17 44 1006.7 5.6 16.9 25.2 36.9 96.8 86.8 296.9
06/05 19:50 7.5 93 7.45 6.4 15 32 1006.7 5.4 17.4 25.6 37.9 99.4 90.1 308.6
06/05 19:40 7.4 94 7.48 6.5 13 28 1006.8 5 17.5 25.7 38.1 99.9 90.6 310.5
06/05 19:30 7.4 93 7.4 6.3 17 35 1006.7 4.6 17.3 25.5 37.7 99.0 89.5 306.6
06/05 19:20 7 91 7.05 5.6 19 28 1006.8 4.2 16.6 25.1 36.5 95.6 85.2 291.4
06/05 19:10 6.8 89 6.81 5.2 11 17 1006.7 3.6 16.1 24.7 35.6 93.2 82.1 280.7
06/05 19:00 7 90 6.98 5.5 19 46 1006.6 2.8 16.4 24.9 36.2 94.8 84.2 288.0
06/05 18:50 7 89 6.9 5.3 19 37 1006.6 2.2 16.2 24.8 35.8 93.9 83.1 284.2
06/05 18:40 19 33 1006.5 1.8
06/05 18:30 22 59 1006.5 1.4
06/05 18:20 22 39 1006.3 1
06/05 18:10 22 35 1006.2 0.4
06/05 18:00 7.4 89 7.08 5.7 22 56 1006.2 0 16.6 25.0 36.4 95.4 85.1 291.2
06/05 17:50 7.6 90 7.25 6 24 41 1006.1 0 17.0 25.2 37.0 97.0 87.2 298.5
06/05 17:40 7.4 89 7.08 5.7 32 46 1006.1 0 16.6 25.0 36.4 95.4 85.1 291.2
06/05 17:30 7.7 92 7.46 6.5 32 61 1006.1 0 17.4 25.5 37.8 99.2 89.9 308.1
06/05 17:20 7.8 88 7.18 5.9 28 37 1005.7 0 16.8 25.0 36.6 95.9 86.0 294.3
06/05 17:10 8.1 87 7.24 6 35 48 1005.7 0 16.9 25.0 36.7 96.2 86.5 296.0
06/05 17:00 8.5 84 7.17 6 43 72 1005.5 0 16.8 24.8 36.2 95.0 85.1 291.2
06/05 16:50 9 77 6.79 5.2 43 54 1006 0 15.9 24.1 34.5 90.3 79.5 271.9
06/05 16:40 8.7 82 7.09 5.9 35 50 1006.3 0 16.6 24.6 35.8 93.9 83.8 286.9
06/05 16:30 8.8 88 7.66 6.9 35 57 1006.2 0 17.8 25.5 38.1 100.0 91.4 313.3
06/05 16:20 8.8 88 7.66 7 35 52 1006.4 0 17.8 25.5 38.1 100.0 91.4 313.4
06/05 16:10 8.9 88 7.71 7.1 28 37 1006.3 0 17.9 25.6 38.3 100.5 91.9 315.3
06/05 16:00 9.7 86 7.93 7.5 24 52 1006.2 0 18.4 25.7 38.8 101.8 94.0 322.5
06/05 15:50 10 81 7.61 6.9 24 39 1006.4 0 17.6 25.1 37.3 98.0 89.3 306.3
06/05 15:40 10.2 78 7.42 6.5 35 50 1006.4 0 17.2 24.8 36.5 95.7 86.6 296.7
06/05 15:30 10.3 79 7.57 6.8 30 50 1006.4 0 17.5 25.0 37.0 97.2 88.4 303.2
06/05 15:20 10 81 7.61 7 26 41 1006.3 0 17.6 25.1 37.3 98.0 89.3 306.2
06/05 15:10 9.9 86 8.03 7.7 32 54 1006.5 0 18.6 25.8 39.1 102.7 95.1 326.5
06/05 15:00 9.9 84 7.85 7.3 30 48 1006.7 0 18.2 25.5 38.4 100.7 92.7 318.0
06/05 14:50 10 85 7.99 7.6 19 33 1006.8 0 18.5 25.8 38.9 102.2 94.5 324.3
06/05 14:40 9.9 85 7.94 7.5 22 41 1006.9 0 18.4 25.7 38.8 101.8 93.9 322.3
06/05 14:30 9.9 88 8.22 8 26 50 1006.9 0 19.0 26.2 39.9 104.8 97.7 335.7
06/05 14:20 10.1 88 8.32 8.3 20 28 1007 0 19.2 26.3 40.2 105.7 98.8 339.6
06/05 14:10 10.1 90 8.51 8.5 26 37 1006.9 0 19.6 26.6 41.0 107.8 101.4 348.7
06/05 14:00 10.5 90 8.73 8.9 24 46 1006.9 0 20.0 26.9 41.7 109.7 104.0 357.6
06/05 13:50 10.6 90 8.79 9 22 30 1007.3 0 20.2 26.9 42.0 110.3 104.7 360.1
06/05 13:40 11.3 86 8.77 9 24 35 1007.4 0 20.1 26.7 41.5 109.1 103.5 356.0
06/05 13:30 13.9 68 8.15 8.1 9 28 1007.4 0 18.6 24.9 37.7 98.9 91.9 315.9
06/05 13:20 14.5 65 8.08 8 6 11 1007.3 0 18.5 24.6 37.1 97.5 90.3 310.4
06/05 13:10 14.6 63 7.88 7.8 6 11 1007.4 0 18.0 24.3 36.3 95.3 87.7 301.1
06/05 13:00 14.6 64 8.01 7.9 7 22 1007.4 0 18.3 24.5 36.8 96.6 89.3 306.9
06/05 12:50 15 60 7.69 7.3 2 6 1007.5 0 17.6 23.9 35.4 92.9 84.8 291.3
06/05 12:40 15 58 7.44 6.8 20 30 1007.7 0 17.1 23.5 34.5 90.4 81.7 280.4
06/05 12:30 15.3 56 7.31 6.6 30 43 1007.8 0 16.8 23.3 33.9 88.8 79.8 273.7
06/05 12:20 15.3 55 7.18 6.5 28 37 1007.9 0 16.5 23.1 33.4 87.5 78.3 268.2
06/05 12:10 15.4 55 7.23 6.6 24 30 1008 0 16.6 23.1 33.6 87.9 78.8 270.0
06/05 12:00 15.4 61 8.01 7.9 17 35 1008.2 0 18.3 24.3 36.5 95.7 88.5 304.0
06/05 11:50 15.2 64 8.31 8.4 15 22 1008.4 0 18.9 24.9 37.8 99.1 92.5 318.2
06/05 11:40 14.9 63 8.03 7.9 22 28 1008.6 0 18.3 24.5 36.8 96.6 89.3 306.9
06/05 11:30 15 60 7.69 7.3 20 32 1008.8 0 17.6 24.0 35.5 93.0 84.9 291.6
06/05 11:20 15.7 59 7.89 7.7 20 30 1009 0 18.0 24.1 35.9 94.2 86.7 297.8
06/05 09:40 14.8 60 7.6 7.1 39 46 1009.9 0 17.4 23.9 35.3 92.4 84.1 288.6
06/05 09:30 14.6 60 7.51 6.9 33 52 1010.1 0 17.2 23.8 35.0 91.8 83.2 285.4
06/05 09:20 14.5 60 7.46 6.8 37 43 1010.1 0 17.1 23.8 34.9 91.4 82.7 283.6
06/05 09:10 14.4 60 7.42 6.9 37 50 1010.3 0 17.0 23.8 34.8 91.1 82.3 282.2
06/05 09:00 14.4 60 7.42 6.7 37 56 1010.3 0 17.0 23.8 34.8 91.1 82.3 282.2
06/05 08:50 14.1 60 7.28 6.4 35 48 1010.3 0 16.8 23.6 34.4 90.0 80.9 277.2
06/05 08:40 14 59 7.12 6.3 44 56 1010.3 0 16.4 23.4 33.8 88.5 79.0 270.5
06/05 08:30 14.1 61 7.4 6.7 41 59 1010.3 0 17.0 23.8 34.8 91.2 82.4 282.4
06/05 08:20 14 62 7.48 6.8 39 50 1010.3 0 17.2 24.0 35.2 92.2 83.5 286.3
06/05 08:10 13.8 61 7.27 6.4 41 57 1010.2 0 16.8 23.7 34.5 90.3 81.0 277.7

Last Refresh: 07-May-2026 01:45:45

Bureau of Meteorology